DW3209 Weather Reports


Display with metric or nautical units.
time (UTC)temp
F
wind
direction
speed
MPH
gust
MPH
rain 1hr
in
rain 24hr
in
rain mn
in
humidity
%
barometer
mb
20210515070252 54 184 0.0 0.0 0.00 0.00 0.00 54 1025.7
20210515065252 54 184 0.0 0.0 0.00 0.00 0.00 55 1025.7
20210515064255 54 184 0.0 0.0 0.00 0.00 0.00 57 1025.7
20210515063252 54 184 0.0 0.0 0.00 0.00 0.00 59 1025.7
20210515062252 53 184 0.0 0.0 0.00 0.00 0.00 59 1025.7
20210515061255 53 184 0.0 0.0 0.00 0.00 0.00 58 1025.7
20210515060252 53 184 0.0 0.0 0.00 0.00 0.00 57 1025.7
20210515055255 53 184 0.0 0.0 0.00 0.00 0.00 57 1025.7
20210515054252 54 184 0.0 0.0 0.00 0.00 0.00 57 1025.7
20210515053252 53 184 0.0 0.0 0.00 0.00 0.00 58 1025.7
20210515051255 53 206 0.0 0.0 0.00 0.00 0.00 59 1025.7
20210515042252 53 260 0.0 0.0 0.00 0.00 0.00 54 1025.7
20210515040256 54 260 0.0 0.0 0.00 0.00 0.00 51 1024.5
20210515035252 55 257 0.0 5.0 0.00 0.00 0.00 50 1025.7
20210515034252 55 253 3.0 8.0 0.00 0.00 0.00 49 1026.8
20210515033252 55 168 3.0 3.0 0.00 0.00 0.00 51 1026.8
20210515031252 55 199 0.0 4.0 0.00 0.00 0.00 50 1025.7
20210515030255 55 239 0.0 5.0 0.00 0.00 0.00 48 1025.7
20210515025255 55 166 4.0 8.0 0.00 0.00 0.00 48 1025.7
20210515024252 56 112 0.0 5.0 0.00 0.00 0.00 47 1025.7
20210515022252 58 199 4.0 9.0 0.00 0.00 0.00 43 1024.5
20210515015255 60 119 0.0 0.0 0.00 0.00 0.00 47 1023.4
20210515013252 61 118 0.0 0.0 0.00 0.00 0.00 45 1023.4
20210515012255 61 118 0.0 0.0 0.00 0.00 0.00 45 1022.2
20210515010252 62 118 0.0 0.0 0.00 0.00 0.00 39 1022.2
20210515004252 65 236 0.0 4.0 0.00 0.00 0.00 29 1022.2
20210515003252 66 140 2.0 4.0 0.00 0.00 0.00 26 1022.2
20210515000255 67 300 0.0 0.0 0.00 0.00 0.00 24 1021.1
20210514235252 67 300 0.0 0.0 0.00 0.00 0.00 24 1021.1
20210514234252 69 6 0.0 0.0 0.00 0.00 0.00 24 1021.1
20210514233255 67 19 0.0 0.0 0.00 0.00 0.00 25 1021.1
20210514230255 67 32 0.0 3.0 0.00 0.00 0.00 24 1022.2
20210514225252 67 24 0.0 0.0 0.00 0.00 0.00 24 1022.2
20210514224255 69 7 0.0 3.0 0.00 0.00 0.00 23 1022.2
20210514223252 69 43 0.0 0.0 0.00 0.00 0.00 23 1022.2
20210514222255 68 299 0.0 4.0 0.00 0.00 0.00 24 1022.2
20210514214252 68 25 0.0 0.0 0.00 0.00 0.00 24 1022.2
20210514213252 68 32 0.0 2.0 0.00 0.00 0.00 23 1022.2
20210514212252 69 167 0.0 4.0 0.00 0.00 0.00 25 1022.2
20210514210252 68 326 0.0 0.0 0.00 0.00 0.00 27 1022.2
20210514205252 67 9 3.0 4.0 0.00 0.00 0.00 24 1023.4
20210514204255 68 180 0.0 0.0 0.00 0.00 0.00 24 1023.4
20210514203255 68 19 0.0 3.0 0.00 0.00 0.00 24 1023.4
20210514193252 66 293 0.0 3.0 0.00 0.00 0.00 25 1023.4
20210514192252 68 285 0.0 3.0 0.00 0.00 0.00 27 1024.5
20210514190252 66 299 0.0 2.0 0.00 0.00 0.00 28 1023.4
20210514184252 65 306 2.0 4.0 0.00 0.00 0.00 24 1024.5
20210514183252 65 42 3.0 3.0 0.00 0.00 0.00 27 1024.5
20210514182252 64 287 0.0 0.0 0.00 0.00 0.00 29 1024.5
20210514181252 63 277 0.0 0.0 0.00 0.00 0.00 32 1024.5
20210514174252 63 282 0.0 2.0 0.00 0.00 0.00 34 1024.5
20210514173252 64 315 0.0 4.0 0.00 0.00 0.00 33 1024.5
20210514172255 63 107 0.0 5.0 0.00 0.00 0.00 31 1024.5
20210514171252 63 165 0.0 0.0 0.00 0.00 0.00 31 1024.5
20210514165252 64 286 0.0 3.0 0.00 0.00 0.00 34 1024.5
20210514164255 63 305 0.0 0.0 0.00 0.00 0.00 31 1024.5
20210514162252 61 267 0.0 3.0 0.00 0.00 0.00 33 1024.5
20210514161252 61 199 0.0 6.0 0.00 0.00 0.00 34 1024.5
20210514155251 60 305 2.0 3.0 0.00 0.00 0.00 35 1024.5
20210514153252 60 257 3.0 5.0 0.00 0.00 0.00 34 1024.5
20210514152252 59 285 2.0 4.0 0.00 0.00 0.00 34 1025.7
20210514151255 59 278 0.0 5.0 0.00 0.00 0.00 34 1025.7
20210514150251 58 268 2.0 4.0 0.00 0.00 0.00 35 1025.7
20210514143255 59 264 0.0 0.0 0.00 0.00 0.00 33 1024.5
20210514140252 58 247 0.0 3.0 0.00 0.00 0.00 35 1025.7
20210514134252 56 286 0.0 3.0 0.00 0.00 0.00 38 1025.7
20210514132255 53 221 0.0 0.0 0.00 0.00 0.00 46 1025.7
20210514131252 53 221 0.0 0.0 0.00 0.00 0.00 47 1025.7
20210514130252 50 221 0.0 0.0 0.00 0.00 0.00 54 1025.7
20210514123255 43 220 0.0 0.0 0.00 0.00 0.00 62 1025.7
20210514114252 44 220 0.0 0.0 0.00 0.00 0.00 56 1025.7
20210514113252 44 220 0.0 0.0 0.00 0.00 0.00 54 1025.7
20210514112252 45 220 0.0 0.0 0.00 0.00 0.00 53 1025.7
20210514110255 46 220 0.0 0.0 0.00 0.00 0.00 49 1025.7
20210514105255 47 220 0.0 0.0 0.00 0.00 0.00 48 1024.5
20210514103252 48 220 0.0 0.0 0.00 0.00 0.00 44 1025.7
20210514102255 49 220 0.0 0.0 0.00 0.00 0.00 42 1025.7
20210514100255 51 220 0.0 0.0 0.00 0.00 0.00 41 1025.7
20210514094251 51 83 0.0 0.0 0.00 0.00 0.00 39 1025.7
20210514093252 52 83 0.0 0.0 0.00 0.00 0.00 38 1025.7
20210514092252 53 210 0.0 3.0 0.00 0.00 0.00 38 1025.7
20210514091254 53 113 0.0 6.0 0.00 0.00 0.00 38 1025.7
20210514090255 53 116 3.0 4.0 0.00 0.00 0.00 38 1025.7
20210514084252 54 190 2.0 5.0 0.00 0.00 0.00 37 1025.7
20210514083252 54 164 2.0 6.0 0.00 0.00 0.00 37 1025.7
20210514081252 54 261 0.0 3.0 0.00 0.00 0.00 37 1025.7
20210514074255 54 295 0.0 0.0 0.00 0.00 0.00 36 1025.7
20210514072252 55 295 0.0 0.0 0.00 0.00 0.00 34 1025.7